createdAt,value
2022-09-23T00:01:23.135Z,16.80
2022-09-23T00:06:30.972Z,16.90
2022-09-23T00:08:57.698Z,16.80
2022-09-23T00:11:26.376Z,16.80
2022-09-23T00:13:57.631Z,16.80
2022-09-23T00:16:26.775Z,16.90
2022-09-23T00:18:53.518Z,16.80
2022-09-23T00:21:20.554Z,16.80
2022-09-23T00:23:47.402Z,16.70
2022-09-23T00:28:49.595Z,16.70
2022-09-23T00:34:24.149Z,16.70
2022-09-23T00:36:50.869Z,16.70
2022-09-23T00:47:55.982Z,16.70
2022-09-23T00:50:29.930Z,16.70
2022-09-23T00:52:57.987Z,16.60
2022-09-23T00:55:32.030Z,16.40
2022-09-23T00:57:59.269Z,16.60
2022-09-23T01:00:25.982Z,16.60
2022-09-23T01:02:53.045Z,16.60
2022-09-23T01:05:19.870Z,16.60
2022-09-23T01:07:49.720Z,16.50
2022-09-23T01:13:42.587Z,16.40
2022-09-23T01:16:12.415Z,16.40
2022-09-23T01:19:01.684Z,16.40
2022-09-23T01:22:16.737Z,16.30
2022-09-23T01:24:53.355Z,16.30
2022-09-23T01:27:56.775Z,16.30
2022-09-23T01:30:47.939Z,16.20
2022-09-23T01:33:20.587Z,16.20
2022-09-23T01:35:54.077Z,16.20
2022-09-23T01:38:30.327Z,16.20
2022-09-23T01:41:30.453Z,16.20
2022-09-23T01:44:02.680Z,16.20
2022-09-23T01:46:37.978Z,16.20
2022-09-23T01:49:20.402Z,16.20
2022-09-23T01:51:53.046Z,16.20
2022-09-23T01:54:25.673Z,16.20
2022-09-23T01:57:09.615Z,16.20
2022-09-23T01:59:57.883Z,16.20
2022-09-23T02:02:30.999Z,16.20
2022-09-23T02:05:13.456Z,16.20
2022-09-23T02:08:16.828Z,16.20
2022-09-23T02:10:46.123Z,16.20
2022-09-23T02:13:22.289Z,16.20
2022-09-23T02:15:51.085Z,16.20
2022-09-23T02:18:21.841Z,16.20
2022-09-23T02:20:48.549Z,16.20
2022-09-23T02:23:23.323Z,16.20
2022-09-23T02:26:09.003Z,16.20
2022-09-23T02:28:45.777Z,16.20
2022-09-23T02:31:28.069Z,16.10
2022-09-23T02:33:57.697Z,16.20
2022-09-23T02:36:24.378Z,16.10
2022-09-23T02:38:53.953Z,16.10
2022-09-23T02:41:23.527Z,16.20
2022-09-23T02:43:59.187Z,16.10
2022-09-23T02:46:26.066Z,16.20
2022-09-23T02:48:58.902Z,16.20
2022-09-23T02:51:25.675Z,16.20
2022-09-23T02:53:54.555Z,16.30
2022-09-23T02:56:21.308Z,16.30
2022-09-23T02:58:49.004Z,16.30
2022-09-23T03:01:15.738Z,16.30
2022-09-23T03:04:15.016Z,16.30
2022-09-23T03:07:03.620Z,16.30
2022-09-23T03:09:38.688Z,16.30
2022-09-23T03:12:09.936Z,16.30
2022-09-23T03:14:52.806Z,16.30
2022-09-23T03:17:26.369Z,16.30
2022-09-23T03:19:57.446Z,16.30
2022-09-23T03:22:46.060Z,16.30
2022-09-23T03:27:50.661Z,16.20
2022-09-23T03:32:52.859Z,16.30
2022-09-23T03:35:19.571Z,16.30
2022-09-23T03:37:57.788Z,16.30
2022-09-23T03:42:59.991Z,16.30
2022-09-23T03:45:28.932Z,16.30
2022-09-23T03:47:55.684Z,16.20
2022-09-23T03:50:22.411Z,16.20
2022-09-23T03:52:52.544Z,16.20
2022-09-23T03:55:21.904Z,16.20
2022-09-23T03:57:48.763Z,16.20
2022-09-23T04:00:15.973Z,16.20
2022-09-23T04:02:42.907Z,16.20
2022-09-23T04:05:10.480Z,16.20
2022-09-23T04:07:37.386Z,16.20
2022-09-23T04:10:05.262Z,16.10
2022-09-23T04:12:35.036Z,16.20
2022-09-23T04:15:01.906Z,16.20
2022-09-23T04:17:28.675Z,16.20
2022-09-23T04:19:55.403Z,16.20
2022-09-23T04:22:22.107Z,16.20
2022-09-23T04:24:48.885Z,16.20
2022-09-23T04:27:18.459Z,16.20
2022-09-23T04:32:23.249Z,16.20
2022-09-23T04:37:25.429Z,16.20
2022-09-23T04:39:52.157Z,16.10
2022-09-23T04:42:22.189Z,16.10
2022-09-23T04:44:49.019Z,16.10
2022-09-23T04:47:15.793Z,16.00
2022-09-23T04:49:42.558Z,16.00
2022-09-23T04:52:09.343Z,15.90
2022-09-23T04:54:36.155Z,15.90
2022-09-23T04:57:05.707Z,15.80
2022-09-23T04:59:35.811Z,15.80
2022-09-23T05:02:02.689Z,15.80
2022-09-23T05:04:29.650Z,15.80
2022-09-23T05:06:59.498Z,15.80
2022-09-23T05:09:33.248Z,15.80
2022-09-23T05:12:00.251Z,15.90
2022-09-23T05:14:27.438Z,15.90
2022-09-23T05:16:54.233Z,15.90
2022-09-23T05:19:21.074Z,15.90
2022-09-23T05:21:47.970Z,15.90
2022-09-23T05:24:17.980Z,15.90
2022-09-23T05:26:44.720Z,15.90
2022-09-23T05:33:20.905Z,15.80
2022-09-23T05:41:59.928Z,15.90
2022-09-23T05:44:26.966Z,15.80
2022-09-23T05:46:55.685Z,15.90
2022-09-23T05:49:33.018Z,15.90
2022-09-23T05:52:09.090Z,15.90
2022-09-23T05:54:36.548Z,16.00
2022-09-23T05:57:05.002Z,15.90
2022-09-23T05:59:32.066Z,16.00
2022-09-23T06:01:58.823Z,16.00
2022-09-23T06:04:25.511Z,16.00
2022-09-23T06:06:52.301Z,16.00
2022-09-23T06:09:19.054Z,16.00
2022-09-23T06:11:45.756Z,16.00
2022-09-23T06:14:13.086Z,16.00
2022-09-23T06:16:39.790Z,16.10
2022-09-23T06:19:07.152Z,16.10
2022-09-23T06:21:38.296Z,16.20
2022-09-23T06:24:05.616Z,16.20
2022-09-23T06:26:32.526Z,16.20
2022-09-23T06:31:34.595Z,16.30
2022-09-23T06:34:12.213Z,16.30
2022-09-23T06:36:45.755Z,16.30
2022-09-23T06:39:14.503Z,16.30
2022-09-23T06:41:41.310Z,16.30
2022-09-23T06:44:08.115Z,16.30
2022-09-23T06:46:41.071Z,16.30
2022-09-23T06:49:07.840Z,16.30
2022-09-23T06:51:34.493Z,16.20
2022-09-23T06:54:01.172Z,16.30
2022-09-23T06:56:27.885Z,16.30
2022-09-23T06:58:54.541Z,16.30
2022-09-23T07:01:21.367Z,16.30
2022-09-23T07:03:48.221Z,16.30
2022-09-23T07:06:15.060Z,16.30
2022-09-23T07:08:45.352Z,16.30
2022-09-23T07:11:12.078Z,16.40
2022-09-23T07:13:39.222Z,16.40
2022-09-23T07:16:06.155Z,16.50
2022-09-23T07:18:36.798Z,16.50
2022-09-23T07:21:11.828Z,16.50
2022-09-23T07:23:38.517Z,16.60
2022-09-23T07:26:05.649Z,16.60
2022-09-23T07:28:32.352Z,16.60
2022-09-23T07:31:35.449Z,16.70
2022-09-23T07:34:05.045Z,16.70
2022-09-23T07:36:31.790Z,16.70
2022-09-23T07:38:59.233Z,16.80
2022-09-23T07:41:26.202Z,16.80
2022-09-23T07:43:53.552Z,16.80
2022-09-23T07:46:20.298Z,16.80
2022-09-23T07:48:47.005Z,16.80
2022-09-23T07:51:18.749Z,16.80
2022-09-23T07:53:47.584Z,16.80
2022-09-23T07:56:14.339Z,16.80
2022-09-23T07:58:41.093Z,16.80
2022-09-23T08:01:09.399Z,16.90
2022-09-23T08:03:36.618Z,16.90
2022-09-23T08:06:08.169Z,17.00
2022-09-23T08:08:35.091Z,17.00
2022-09-23T08:11:05.244Z,16.90
2022-09-23T08:13:32.792Z,17.00
2022-09-23T08:15:59.734Z,17.00
2022-09-23T08:18:26.598Z,17.00
2022-09-23T08:20:53.401Z,17.10
2022-09-23T08:23:20.149Z,17.10
2022-09-23T08:25:47.137Z,17.10
2022-09-23T08:28:17.193Z,17.20
2022-09-23T08:30:44.537Z,17.20
2022-09-23T08:33:11.872Z,17.20
2022-09-23T08:35:38.584Z,17.20
2022-09-23T08:38:08.560Z,17.20
2022-09-23T08:40:39.422Z,17.20
2022-09-23T08:43:07.136Z,17.20
2022-09-23T08:45:34.266Z,17.20
2022-09-23T08:48:03.918Z,17.20
2022-09-23T08:50:42.330Z,17.20
2022-09-23T08:53:16.210Z,17.20
2022-09-23T08:55:46.572Z,17.20
2022-09-23T08:58:32.014Z,17.20
2022-09-23T09:01:10.157Z,17.30
2022-09-23T09:04:19.306Z,17.30
2022-09-23T09:07:24.493Z,17.40
2022-09-23T09:10:12.178Z,17.40
2022-09-23T09:12:52.588Z,17.40
2022-09-23T09:15:27.993Z,17.50
2022-09-23T09:18:12.895Z,17.50
2022-09-23T09:20:49.167Z,17.60
2022-09-23T09:26:48.746Z,17.50
2022-09-23T09:29:34.700Z,17.50
2022-09-23T09:32:20.540Z,17.50
2022-09-23T09:34:53.797Z,17.40
2022-09-23T09:37:36.087Z,17.50
2022-09-23T09:40:03.029Z,17.60
2022-09-23T09:42:40.327Z,17.60
2022-09-23T09:45:25.403Z,17.70
2022-09-23T09:48:02.421Z,17.80
2022-09-23T09:50:52.252Z,17.90
2022-09-23T09:53:25.677Z,18.00
2022-09-23T09:56:14.978Z,18.10
2022-09-23T09:58:47.929Z,18.20
2022-09-23T10:01:27.218Z,18.20
2022-09-23T10:06:44.448Z,18.10
2022-09-23T10:09:16.958Z,17.90
2022-09-23T10:11:43.842Z,17.80
2022-09-23T10:14:15.923Z,17.70
2022-09-23T10:16:42.727Z,17.70
2022-09-23T10:19:24.925Z,17.60
2022-09-23T10:21:56.531Z,17.50
2022-09-23T10:24:25.361Z,17.50
2022-09-23T10:26:56.051Z,17.50
2022-09-23T10:29:53.352Z,17.50
2022-09-23T10:32:36.093Z,17.50
2022-09-23T10:35:08.836Z,17.50
2022-09-23T10:37:38.814Z,17.50
2022-09-23T10:40:12.071Z,17.50
2022-09-23T10:42:59.969Z,17.50
2022-09-23T10:45:27.494Z,17.50
2022-09-23T10:48:00.282Z,17.50
2022-09-23T10:50:47.685Z,17.50
2022-09-23T10:53:38.479Z,17.60
2022-09-23T10:56:26.661Z,17.60
2022-09-23T10:59:31.237Z,17.60
2022-09-23T11:02:03.916Z,17.70
2022-09-23T11:04:39.812Z,17.70
2022-09-23T11:07:37.508Z,17.70
2022-09-23T11:10:44.884Z,17.70
2022-09-23T11:13:31.038Z,17.70
2022-09-23T11:16:23.432Z,17.80
2022-09-23T11:19:05.303Z,17.80
2022-09-23T11:21:50.964Z,17.90
2022-09-23T11:24:35.642Z,18.00
2022-09-23T11:27:23.773Z,18.10
2022-09-23T11:30:09.550Z,18.20
2022-09-23T11:32:58.916Z,18.50
2022-09-23T11:35:46.499Z,18.70
2022-09-23T11:38:21.495Z,18.90
2022-09-23T11:40:48.373Z,19.10
2022-09-23T11:43:22.904Z,19.30
2022-09-23T11:46:15.378Z,19.40
2022-09-23T11:48:48.235Z,19.50
2022-09-23T11:51:16.895Z,19.50
2022-09-23T11:53:51.645Z,19.60
2022-09-23T11:56:34.117Z,19.70
2022-09-23T11:59:17.624Z,19.70
2022-09-23T12:01:47.199Z,19.60
2022-09-23T12:04:31.604Z,19.60
2022-09-23T12:07:12.323Z,19.60
2022-09-23T12:09:57.613Z,19.60
2022-09-23T12:12:51.718Z,19.60
2022-09-23T12:15:33.501Z,19.50
2022-09-23T12:18:08.723Z,19.50
2022-09-23T12:20:58.540Z,19.30
2022-09-23T12:23:41.424Z,19.20
2022-09-23T12:26:08.854Z,19.10
2022-09-23T12:28:40.430Z,19.00
2022-09-23T12:31:12.695Z,19.00
2022-09-23T12:33:39.482Z,18.90
2022-09-23T12:36:07.614Z,18.90
2022-09-23T12:38:53.754Z,18.90
2022-09-23T12:41:23.449Z,19.00
2022-09-23T12:43:51.952Z,18.90
2022-09-23T12:46:28.021Z,19.00
2022-09-23T12:48:54.723Z,19.10
2022-09-23T12:51:21.447Z,19.20
2022-09-23T12:53:48.094Z,19.30
2022-09-23T12:56:16.800Z,19.50
2022-09-23T12:58:45.606Z,19.80
2022-09-23T13:01:15.210Z,20.20
2022-09-23T13:03:51.343Z,20.20
2022-09-23T13:06:18.083Z,20.00
2022-09-23T13:08:45.369Z,19.90
2022-09-23T13:11:29.006Z,19.80
2022-09-23T13:13:59.128Z,19.60
2022-09-23T13:16:26.008Z,19.50
2022-09-23T13:18:56.018Z,19.50
2022-09-23T13:21:44.510Z,19.50
2022-09-23T13:24:17.404Z,19.50
2022-09-23T13:26:52.956Z,19.60
2022-09-23T13:29:25.766Z,19.90
2022-09-23T13:31:52.656Z,21.70
2022-09-23T13:34:21.681Z,24.00
2022-09-23T13:36:49.080Z,25.50
2022-09-23T13:39:26.670Z,26.20
2022-09-23T13:41:55.023Z,26.30
2022-09-23T13:44:21.855Z,26.00
2022-09-23T13:46:52.808Z,25.50
2022-09-23T13:49:24.697Z,24.90
2022-09-23T13:51:55.513Z,24.30
2022-09-23T13:54:36.413Z,23.80
2022-09-23T13:57:03.449Z,23.50
2022-09-23T13:59:33.856Z,23.30
2022-09-23T14:02:13.367Z,23.20
2022-09-23T14:04:40.303Z,23.10
2022-09-23T14:07:16.309Z,22.80
2022-09-23T14:09:49.639Z,22.70
2022-09-23T14:12:16.376Z,22.70
2022-09-23T14:14:43.081Z,22.60
2022-09-23T14:17:09.760Z,22.40
2022-09-23T14:19:43.923Z,22.30
2022-09-23T14:22:29.682Z,22.30
2022-09-23T14:24:56.534Z,22.10
2022-09-23T14:27:28.975Z,21.90
2022-09-23T14:29:55.670Z,21.70
2022-09-23T14:32:23.329Z,21.50
2022-09-23T14:35:02.006Z,21.40
2022-09-23T14:37:29.959Z,21.30
2022-09-23T14:39:57.897Z,21.30
2022-09-23T14:42:24.676Z,21.40
2022-09-23T14:44:51.399Z,21.60
2022-09-23T14:47:18.095Z,22.00
2022-09-23T14:49:48.819Z,22.20
2022-09-23T14:52:15.517Z,22.20
2022-09-23T14:54:48.273Z,22.00
2022-09-23T14:57:25.526Z,21.80
2022-09-23T14:59:59.664Z,21.40
2022-09-23T15:02:40.014Z,21.10
2022-09-23T15:05:13.929Z,21.00
2022-09-23T15:07:40.651Z,20.80
2022-09-23T15:10:08.728Z,20.70
2022-09-23T15:12:35.616Z,20.70
2022-09-23T15:15:02.377Z,20.70
2022-09-23T15:17:35.716Z,20.70
2022-09-23T15:20:17.263Z,20.70
2022-09-23T15:22:49.381Z,20.70
2022-09-23T15:25:18.654Z,20.80
2022-09-23T15:28:02.678Z,20.70
2022-09-23T15:30:29.592Z,20.70
2022-09-23T15:33:13.696Z,20.60
2022-09-23T15:35:42.579Z,20.80
2022-09-23T15:38:09.302Z,20.90
2022-09-23T15:40:36.801Z,21.10
2022-09-23T15:43:20.709Z,21.30
2022-09-23T15:45:52.764Z,21.40
2022-09-23T15:48:21.316Z,21.40
2022-09-23T15:50:48.551Z,21.60
2022-09-23T15:53:17.156Z,21.80
2022-09-23T15:55:43.909Z,21.90
2022-09-23T15:58:10.894Z,22.00
2022-09-23T16:00:37.656Z,22.00
2022-09-23T16:03:04.878Z,21.90
2022-09-23T16:05:34.630Z,21.70
2022-09-23T16:08:05.022Z,21.50
2022-09-23T16:10:35.379Z,21.30
2022-09-23T16:13:02.934Z,21.10
2022-09-23T16:15:30.775Z,20.90
2022-09-23T16:17:58.133Z,20.80
2022-09-23T16:20:25.814Z,20.70
2022-09-23T16:23:27.551Z,20.60
2022-09-23T16:25:54.303Z,20.50
2022-09-23T16:28:20.966Z,20.40
2022-09-23T16:30:47.767Z,20.30
2022-09-23T16:33:14.554Z,20.20
2022-09-23T16:35:41.306Z,20.10
2022-09-23T16:38:08.854Z,20.00
2022-09-23T16:40:35.585Z,19.90
2022-09-23T16:43:02.502Z,19.80
2022-09-23T16:45:29.262Z,19.70
2022-09-23T16:47:55.997Z,19.50
2022-09-23T16:50:23.455Z,19.40
2022-09-23T16:52:52.294Z,19.40
2022-09-23T16:55:19.074Z,19.30
2022-09-23T16:57:45.818Z,19.30
2022-09-23T17:00:14.468Z,19.20
2022-09-23T17:02:41.471Z,19.20
2022-09-23T17:05:08.585Z,19.10
2022-09-23T17:07:35.326Z,19.10
2022-09-23T17:10:02.270Z,19.00
2022-09-23T17:12:32.226Z,18.90
2022-09-23T17:14:58.908Z,18.90
2022-09-23T17:17:25.579Z,18.80
2022-09-23T17:19:52.227Z,18.80
2022-09-23T17:22:19.252Z,18.70
2022-09-23T17:24:46.070Z,18.60
2022-09-23T17:27:12.939Z,18.50
2022-09-23T17:29:39.985Z,18.50
2022-09-23T17:32:06.698Z,18.40
2022-09-23T17:34:33.693Z,18.30
2022-09-23T17:37:00.875Z,18.30
2022-09-23T17:39:27.539Z,18.20
2022-09-23T17:41:54.229Z,18.10
2022-09-23T17:44:20.956Z,18.00
2022-09-23T17:46:47.819Z,18.10
2022-09-23T17:49:14.524Z,17.90
2022-09-23T17:51:41.471Z,17.90
2022-09-23T17:54:08.224Z,17.90
2022-09-23T17:56:34.974Z,17.80
2022-09-23T17:59:01.827Z,17.70
2022-09-23T18:01:28.691Z,17.70
2022-09-23T18:03:56.405Z,17.70
2022-09-23T18:06:24.375Z,17.70
2022-09-23T18:08:51.306Z,17.70
2022-09-23T18:11:25.400Z,17.70
2022-09-23T18:13:56.441Z,17.70
2022-09-23T18:16:25.418Z,17.80
2022-09-23T18:18:59.618Z,17.80
2022-09-23T18:21:28.442Z,17.80
2022-09-23T18:23:59.803Z,17.80
2022-09-23T18:26:33.536Z,17.80
2022-09-23T18:34:53.668Z,17.90
2022-09-23T18:37:20.431Z,17.90
2022-09-23T18:42:32.062Z,17.80
2022-09-23T18:44:58.844Z,17.80
2022-09-23T18:47:25.546Z,17.80
2022-09-23T18:49:54.837Z,17.80
2022-09-23T18:55:43.873Z,17.80
2022-09-23T18:58:10.548Z,17.80
2022-09-23T19:00:37.276Z,17.80
2022-09-23T19:03:04.218Z,17.80
2022-09-23T19:05:33.516Z,17.80
2022-09-23T19:08:00.282Z,17.80
2022-09-23T19:10:26.954Z,17.80
2022-09-23T19:12:53.687Z,17.80
2022-09-23T19:15:20.443Z,17.80
2022-09-23T19:17:47.127Z,17.70
2022-09-23T19:20:13.801Z,17.70
2022-09-23T19:22:40.515Z,17.70
2022-09-23T19:25:07.870Z,17.70
2022-09-23T19:27:34.651Z,17.70
2022-09-23T19:30:04.279Z,17.60
2022-09-23T19:32:31.016Z,17.60
2022-09-23T19:34:57.701Z,17.60
2022-09-23T19:37:24.416Z,17.60
2022-09-23T19:39:51.074Z,17.60
2022-09-23T19:42:17.817Z,17.60
2022-09-23T19:44:44.464Z,17.50
2022-09-23T19:47:14.321Z,17.50
2022-09-23T19:49:41.140Z,17.50
2022-09-23T19:52:07.822Z,17.50
2022-09-23T19:54:34.508Z,17.50
2022-09-23T19:57:01.222Z,17.50
2022-09-23T19:59:27.910Z,17.50
2022-09-23T20:01:54.773Z,17.50
2022-09-23T20:04:21.775Z,17.40
2022-09-23T20:06:48.460Z,17.40
2022-09-23T20:09:15.164Z,17.40
2022-09-23T20:11:41.898Z,17.30
2022-09-23T20:14:10.317Z,17.30
2022-09-23T20:16:37.428Z,17.30
2022-09-23T20:19:04.629Z,17.20
2022-09-23T20:21:31.908Z,17.20
2022-09-23T20:23:58.946Z,17.20
2022-09-23T20:26:25.759Z,17.10
2022-09-23T20:28:52.680Z,17.10
2022-09-23T20:31:19.721Z,17.10
2022-09-23T20:33:50.773Z,17.10
2022-09-23T20:36:20.279Z,17.00
2022-09-23T20:38:46.997Z,17.00
2022-09-23T20:41:13.661Z,17.00
2022-09-23T20:43:40.523Z,16.90
2022-09-23T20:46:07.242Z,16.90
2022-09-23T20:48:34.027Z,16.90
2022-09-23T20:51:04.728Z,16.90
2022-09-23T20:53:31.550Z,16.80
2022-09-23T20:55:58.406Z,16.80
2022-09-23T20:58:29.455Z,16.70
2022-09-23T21:01:06.791Z,16.70
2022-09-23T21:03:33.527Z,16.70
2022-09-23T21:06:01.428Z,16.70
2022-09-23T21:08:28.101Z,16.70
2022-09-23T21:10:58.625Z,16.70
2022-09-23T21:13:25.315Z,16.70
2022-09-23T21:15:52.084Z,16.70
2022-09-23T21:18:22.393Z,16.60
2022-09-23T21:20:58.982Z,16.60
2022-09-23T21:23:26.905Z,16.60
2022-09-23T21:26:00.414Z,16.60
2022-09-23T21:28:30.139Z,16.60
2022-09-23T21:31:11.122Z,16.60
2022-09-23T21:33:37.836Z,16.50
2022-09-23T21:36:05.886Z,16.50
2022-09-23T21:38:38.195Z,16.50
2022-09-23T21:41:06.721Z,16.40
2022-09-23T21:43:34.633Z,16.40
2022-09-23T21:46:02.865Z,16.40
2022-09-23T21:48:30.374Z,16.30
2022-09-23T21:50:58.377Z,16.20
2022-09-23T21:53:25.350Z,16.20
2022-09-23T21:55:52.360Z,16.10
2022-09-23T21:58:19.058Z,16.00
2022-09-23T22:00:45.863Z,16.00
2022-09-23T22:03:12.687Z,15.90
2022-09-23T22:05:39.378Z,15.90
2022-09-23T22:08:06.070Z,15.80
2022-09-23T22:10:32.726Z,15.80
2022-09-23T22:12:59.433Z,15.80
2022-09-23T22:15:26.090Z,15.80
2022-09-23T22:17:53.669Z,15.80
2022-09-23T22:20:20.339Z,15.70
2022-09-23T22:22:47.031Z,15.70
2022-09-23T22:25:13.857Z,15.70
2022-09-23T22:27:40.596Z,15.70
2022-09-23T22:30:09.416Z,15.70
2022-09-23T22:32:36.107Z,15.70
2022-09-23T22:35:03.056Z,15.70
2022-09-23T22:37:31.582Z,15.70
2022-09-23T22:39:58.305Z,15.70
2022-09-23T22:42:24.992Z,15.60
2022-09-23T22:44:51.833Z,15.60
2022-09-23T22:47:19.234Z,15.60
2022-09-23T22:49:46.446Z,15.50
2022-09-23T22:52:13.253Z,15.50
2022-09-23T22:54:39.935Z,15.50
2022-09-23T22:57:07.349Z,15.40
2022-09-23T22:59:34.319Z,15.40
2022-09-23T23:02:01.269Z,15.40
2022-09-23T23:04:28.258Z,15.40
2022-09-23T23:06:55.065Z,15.40
2022-09-23T23:09:21.749Z,15.30
2022-09-23T23:11:48.418Z,15.30
2022-09-23T23:14:16.609Z,15.20
2022-09-23T23:16:44.037Z,15.20
2022-09-23T23:19:12.118Z,15.10
2022-09-23T23:21:38.972Z,15.10
2022-09-23T23:24:06.426Z,15.00
2022-09-23T23:26:33.705Z,15.00
2022-09-23T23:29:00.868Z,14.90
2022-09-23T23:31:28.628Z,14.90
2022-09-23T23:33:55.377Z,14.90
2022-09-23T23:36:22.747Z,14.80
2022-09-23T23:38:50.312Z,14.80
2022-09-23T23:41:18.596Z,14.70
2022-09-23T23:43:46.080Z,14.70
2022-09-23T23:46:13.586Z,14.70
2022-09-23T23:48:40.586Z,14.60
2022-09-23T23:51:08.198Z,14.60
2022-09-23T23:53:36.876Z,14.50
2022-09-23T23:56:08.785Z,14.50
2022-09-23T23:58:35.580Z,14.40
